Time;durP1;ratioP1;P1;durP2;ratioP2;P2;SDS_P1;SDS_P2;PMS_P1;PMS_P2;Temp;Humidity;BMP_temperature;BMP_pressure;BME280_temperature;BME280_humidity;BME280_pressure;Samples;Min_cycle;Max_cycle;Signal;HPM_P1;HPM_P2
2023/05/27 00:01:18;;;;;;;12.15;5.10;;;;;;;;;;5071930;28;20025;-68
2023/05/27 00:03:45;;;;;;;9.68;4.75;;;;;;;;;;5071101;28;20111;-67
2023/05/27 00:06:12;;;;;;;11.50;4.60;;;;;;;;;;5071067;28;20022;-68
2023/05/27 00:08:38;;;;;;;9.60;4.20;;;;;;;;;;5070348;28;20596;-68
2023/05/27 00:11:04;;;;;;;8.57;4.35;;;;;;;;;;5070877;28;20048;-67
2023/05/27 00:13:30;;;;;;;11.23;4.53;;;;;;;;;;5079194;28;20387;-67
2023/05/27 00:15:56;;;;;;;11.25;3.90;;;;;;;;;;5070777;28;20032;-69
2023/05/27 00:18:22;;;;;;;10.80;5.03;;;;;;;;;;5061151;28;20365;-70
2023/05/27 00:20:48;;;;;;;10.07;4.30;;;;;;;;;;5058273;28;20029;-70
2023/05/27 00:23:14;;;;;;;9.65;4.25;;;;;;;;;;5052715;28;20067;-70
2023/05/27 00:25:41;;;;;;;11.90;3.75;;;;;;;;;;5064997;28;20013;-71
2023/05/27 00:28:07;;;;;;;13.57;4.30;;;;;;;;;;5080057;28;20400;-70
2023/05/27 00:30:33;;;;;;;10.85;4.32;;;;;;;;;;5086948;28;20079;-70
2023/05/27 00:32:59;;;;;;;11.40;4.43;;;;;;;;;;5043466;28;20073;-69
2023/05/27 00:35:25;;;;;;;13.60;4.35;;;;;;;;;;5066076;28;20020;-69
2023/05/27 00:37:51;;;;;;;8.93;3.85;;;;;;;;;;5078976;28;20572;-69
2023/05/27 00:40:20;;;;;;;7.95;4.18;;;;;;;;;;5077216;28;20024;-70
2023/05/27 00:42:45;;;;;;;10.95;4.57;;;;;;;;;;5060940;28;20140;-70
2023/05/27 00:45:12;;;;;;;10.70;4.30;;;;;;;;;;5075131;28;20055;-70
2023/05/27 00:47:38;;;;;;;7.55;3.90;;;;;;;;;;5079952;28;20020;-70
2023/05/27 00:50:05;;;;;;;9.45;4.50;;;;;;;;;;5077338;28;20520;-70
2023/05/27 00:52:31;;;;;;;14.73;4.72;;;;;;;;;;5075614;28;20099;-70
2023/05/27 00:54:58;;;;;;;10.85;4.35;;;;;;;;;;5069363;28;20055;-70
2023/05/27 00:57:24;;;;;;;12.68;4.65;;;;;;;;;;5071417;28;20031;-70
2023/05/27 00:59:50;;;;;;;8.88;4.20;;;;;;;;;;5070225;28;20024;-69
2023/05/27 01:02:16;;;;;;;11.30;4.72;;;;;;;;;;5070817;28;20029;-71
2023/05/27 01:04:42;;;;;;;13.02;4.50;;;;;;;;;;5072296;28;20385;-70
2023/05/27 01:07:08;;;;;;;9.68;4.72;;;;;;;;;;5059259;28;20082;-70
2023/05/27 01:09:54;;;;;;;6.60;3.85;;;;;;;;;;5072058;28;20021;-70
2023/05/27 01:12:23;;;;;;;9.57;4.55;;;;;;;;;;5049215;28;20033;-70
2023/05/27 01:14:50;;;;;;;9.40;3.92;;;;;;;;;;5072279;28;20086;-70
2023/05/27 01:17:17;;;;;;;11.25;4.88;;;;;;;;;;5066568;28;20024;-70
2023/05/27 01:19:45;;;;;;;12.10;4.47;;;;;;;;;;5085372;28;20359;-70
2023/05/27 01:22:12;;;;;;;8.90;4.38;;;;;;;;;;5072150;28;20043;-70
2023/05/27 01:24:38;;;;;;;10.82;4.22;;;;;;;;;;5060618;28;20470;-70
2023/05/27 01:27:04;;;;;;;8.30;3.67;;;13.00;99.90;;;;;;5075767;28;20029;-70
2023/05/27 01:29:30;;;;;;;10.90;4.40;;;12.80;99.90;;;;;;5068350;28;20030;-70
2023/05/27 01:32:16;;;;;;;12.98;4.72;;;12.70;99.90;;;;;;5069077;28;20470;-69
2023/05/27 01:34:55;;;;;;;11.55;5.28;;;12.60;99.90;;;;;;5079442;28;20028;-70
2023/05/27 01:37:23;;;;;;;12.40;4.82;;;12.50;99.90;;;;;;5074191;28;20032;-70
2023/05/27 01:39:50;;;;;;;12.48;4.45;;;12.40;99.90;;;;;;5073942;28;20028;-69
2023/05/27 01:42:16;;;;;;;13.85;5.10;;;12.40;99.90;;;;;;5061889;28;20040;-70
2023/05/27 01:44:43;;;;;;;7.00;3.72;;;12.40;99.90;;;;;;5073798;28;20029;-70
2023/05/27 01:47:09;;;;;;;11.18;4.60;;;12.30;99.90;;;;;;5060845;28;20036;-70
2023/05/27 01:49:35;;;;;;;8.88;3.78;;;12.30;99.90;;;;;;5080566;28;20052;-69
2023/05/27 01:52:01;;;;;;;9.77;3.53;;;12.30;99.90;;;;;;5072832;28;20369;-69
2023/05/27 01:54:26;;;;;;;8.52;3.83;;;12.20;99.90;;;;;;5073508;28;20124;-70
2023/05/27 01:56:52;;;;;;;11.27;3.60;;;12.20;99.90;;;;;;5073754;28;20021;-69
2023/05/27 01:59:18;;;;;;;10.10;4.32;;;12.10;99.90;;;;;;5073352;28;20031;-69
2023/05/27 02:01:43;;;;;;;13.32;4.25;;;12.10;99.90;;;;;;5063165;28;20028;-70
2023/05/27 02:04:09;;;;;;;9.65;3.97;;;12.10;99.90;;;;;;5073197;28;20040;-70
2023/05/27 02:06:35;;;;;;;10.27;4.18;;;12.10;99.90;;;;;;5082135;28;20108;-70
2023/05/27 02:09:01;;;;;;;11.70;4.30;;;12.10;99.90;;;;;;5072785;28;20063;-69
2023/05/27 02:11:27;;;;;;;9.82;3.92;;;12.10;99.90;;;;;;5065435;28;20028;-69
2023/05/27 02:13:52;;;;;;;11.57;4.13;;;12.00;99.90;;;;;;5072828;28;20462;-69
2023/05/27 02:16:20;;;;;;;12.68;4.15;;;11.90;99.90;;;;;;5072722;28;20104;-70
2023/05/27 02:18:48;;;;;;;9.50;4.25;;;11.90;99.90;;;;;;5072689;28;20036;-70
2023/05/27 02:21:14;;;;;;;10.15;4.03;;;11.90;99.90;;;;;;5065619;28;20036;-68
2023/05/27 02:23:40;;;;;;;13.60;4.20;;;11.90;99.90;;;;;;5081160;28;20490;-70
2023/05/27 02:26:06;;;;;;;16.42;4.28;;;11.90;99.90;;;;;;5074246;28;20060;-70
2023/05/27 02:28:31;;;;;;;11.05;4.22;;;11.90;99.90;;;;;;5086304;28;20035;-70
2023/05/27 02:30:58;;;;;;;10.40;4.20;;;11.80;99.90;;;;;;5073406;28;20068;-71
2023/05/27 02:33:23;;;;;;;8.45;3.35;;;11.80;99.90;;;;;;5073184;28;20090;-71
2023/05/27 02:35:49;;;;;;;11.68;4.38;;;11.70;99.90;;;;;;5073068;28;20033;-69
2023/05/27 02:38:15;;;;;;;15.50;4.10;;;11.70;99.90;;;;;;5072601;28;20027;-71
2023/05/27 02:40:40;;;;;;;12.73;4.30;;;11.70;99.90;;;;;;5071533;28;20027;-70
2023/05/27 02:43:06;;;;;;;16.45;5.38;;;11.70;99.90;;;;;;5072226;28;20029;-70
2023/05/27 02:45:32;;;;;;;12.98;4.40;;;11.70;99.90;;;;;;5073015;28;20426;-71
2023/05/27 02:48:00;;;;;;;11.68;4.43;;;11.70;99.90;;;;;;5072138;28;20028;-70
2023/05/27 02:50:26;;;;;;;9.82;4.13;;;11.60;99.90;;;;;;5068171;28;20053;-69
2023/05/27 02:52:52;;;;;;;15.65;4.65;;;11.60;99.90;;;;;;5064370;28;20040;-69
2023/05/27 02:55:18;;;;;;;14.93;4.68;;;11.60;99.90;;;;;;5072553;28;20037;-69
2023/05/27 02:57:43;;;;;;;12.90;4.35;;;11.60;99.90;;;;;;5075964;28;20454;-69
2023/05/27 03:00:11;;;;;;;12.85;4.10;;;11.60;99.90;;;;;;5066676;28;20210;-69
2023/05/27 03:02:37;;;;;;;13.18;4.35;;;11.50;99.90;;;;;;5072938;28;20082;-69
2023/05/27 03:05:03;;;;;;;11.77;4.35;;;11.50;99.90;;;;;;5071736;28;20028;-69
2023/05/27 03:07:29;;;;;;;10.27;4.63;;;11.50;99.90;;;;;;5072640;28;20029;-69
2023/05/27 03:09:56;;;;;;;13.32;4.47;;;11.50;99.90;;;;;;5066225;28;20030;-69
2023/05/27 03:12:22;;;;;;;13.95;4.13;;;11.50;99.90;;;;;;5072748;28;20532;-69
2023/05/27 03:14:47;;;;;;;13.20;3.60;;;11.40;99.90;;;;;;5071417;28;20147;-70
2023/05/27 03:17:13;;;;;;;14.85;4.63;;;11.40;99.90;;;;;;5071922;28;20504;-70
2023/05/27 03:19:38;;;;;;;12.63;4.68;;;11.30;99.90;;;;;;5066130;28;20021;-71
2023/05/27 03:22:04;;;;;;;11.48;4.47;;;11.30;99.90;;;;;;5071805;28;20066;-71
2023/05/27 03:24:30;;;;;;;12.27;4.40;;;11.30;99.90;;;;;;5071803;28;20082;-72
2023/05/27 03:26:55;;;;;;;15.95;4.85;;;11.30;99.90;;;;;;5072494;28;20033;-71
2023/05/27 03:29:21;;;;;;;11.25;4.53;;;11.20;99.90;;;;;;5083571;28;20051;-70
2023/05/27 03:31:47;;;;;;;10.05;3.97;;;11.20;99.90;;;;;;5077589;28;20036;-71
2023/05/27 03:34:13;;;;;;;9.57;4.18;;;11.20;99.90;;;;;;5071102;28;20091;-71
2023/05/27 03:36:38;;;;;;;15.73;4.85;;;11.20;99.90;;;;;;5072138;28;20478;-69
2023/05/27 03:39:04;;;;;;;15.65;3.90;;;11.20;99.90;;;;;;5064972;28;20352;-71
2023/05/27 03:41:33;;;;;;;10.70;3.78;;;11.20;99.90;;;;;;5064105;28;20107;-70
2023/05/27 03:43:58;;;;;;;13.45;4.05;;;11.20;99.90;;;;;;5070989;28;20028;-69
2023/05/27 03:46:24;;;;;;;13.52;4.88;;;11.20;99.90;;;;;;5072201;28;20486;-69
2023/05/27 03:48:49;;;;;;;10.35;3.78;;;11.10;99.90;;;;;;5082475;28;20108;-69
2023/05/27 03:51:15;;;;;;;10.13;3.92;;;11.10;99.90;;;;;;5070961;28;20455;-70
2023/05/27 03:53:41;;;;;;;15.27;4.40;;;11.20;99.90;;;;;;5071338;28;20028;-71
2023/05/27 03:56:06;;;;;;;14.30;4.40;;;11.20;99.90;;;;;;5071213;28;20029;-70
2023/05/27 03:58:32;;;;;;;9.50;4.10;;;11.20;99.90;;;;;;5070473;28;20024;-70
2023/05/27 04:00:57;;;;;;;11.93;4.38;;;11.20;99.90;;;;;;5063680;28;20047;-70
2023/05/27 04:03:23;;;;;;;18.52;4.90;;;11.20;99.90;;;;;;5071068;28;20385;-69
2023/05/27 04:05:49;;;;;;;17.60;4.78;;;11.20;99.90;;;;;;5071642;28;20024;-70
2023/05/27 04:08:14;;;;;;;19.15;5.28;;;11.20;99.90;;;;;;5069600;28;20038;-70
2023/05/27 04:10:40;;;;;;;14.10;5.00;;;11.20;99.90;;;;;;5053599;28;20067;-68
2023/05/27 04:13:05;;;;;;;17.15;4.60;;;11.30;99.90;;;;;;5070416;28;20090;-68
2023/05/27 04:15:31;;;;;;;10.20;3.80;;;11.30;99.90;;;;;;5071451;28;20457;-70
2023/05/27 04:17:57;;;;;;;9.05;4.15;;;11.30;99.90;;;;;;5068361;28;20056;-69
2023/05/27 04:20:23;;;;;;;12.82;4.47;;;11.30;99.90;;;;;;5072118;28;20488;-69
2023/05/27 04:22:49;;;;;;;9.95;3.85;;;11.40;99.90;;;;;;5072825;28;20106;-70
2023/05/27 04:25:15;;;;;;;13.65;4.32;;;11.40;99.90;;;;;;5070647;28;20029;-70
2023/05/27 04:27:41;;;;;;;13.13;4.20;;;11.50;99.90;;;;;;5076870;28;20025;-70
2023/05/27 04:30:07;;;;;;;16.02;4.63;;;11.50;99.90;;;;;;5078354;28;20517;-70
2023/05/27 04:32:37;;;;;;;12.05;4.43;;;11.50;99.90;;;;;;5071513;28;20024;-70
2023/05/27 04:35:11;;;;;;;8.93;3.45;;;11.60;99.90;;;;;;5070461;28;20082;-70
2023/05/27 04:37:37;;;;;;;11.98;4.13;;;11.70;99.90;;;;;;5068791;28;20037;-69
2023/05/27 04:40:08;;;;;;;10.85;3.90;;;11.80;99.90;;;;;;5076035;28;20423;-69
2023/05/27 04:42:36;;;;;;;12.52;4.43;;;11.80;99.90;;;;;;5071256;28;20461;-69
2023/05/27 04:45:09;;;;;;;11.63;4.57;;;11.90;99.90;;;;;;5073043;28;20090;-69
2023/05/27 04:47:36;;;;;;;15.27;4.35;;;12.00;99.90;;;;;;5074889;28;20021;-70
2023/05/27 04:50:05;;;;;;;11.25;4.63;;;12.00;99.90;;;;;;5073465;28;20405;-70
2023/05/27 04:52:36;;;;;;;10.75;4.20;;;12.10;99.90;;;;;;5075088;28;20090;-70
2023/05/27 04:55:06;;;;;;;16.60;5.03;;;12.20;99.90;;;;;;5075116;28;20115;-69
2023/05/27 04:57:33;;;;;;;19.17;4.85;;;12.40;99.90;;;;;;5073941;28;20486;-70
2023/05/27 05:00:18;;;;;;;20.63;5.15;;;12.50;99.90;;;;;;5073677;28;20116;-69
2023/05/27 05:02:46;;;;;;;12.10;4.70;;;12.70;99.90;;;;;;5068531;28;20087;-70
2023/05/27 05:05:12;;;;;;;16.88;5.22;;;12.80;99.90;;;;;;5073856;28;20021;-70
2023/05/27 05:07:39;;;;;;;16.63;4.60;;;12.90;99.90;;;;;;5071019;28;20359;-70
2023/05/27 05:10:07;;;;;;;22.55;5.22;;;13.00;99.90;;;;;;5067649;28;20039;-70
2023/05/27 05:12:33;;;;;;;17.98;5.20;;;13.10;99.90;;;;;;5081359;28;20032;-69
2023/05/27 05:14:58;;;;;;;14.40;5.30;;;13.20;99.90;;;;;;5073670;28;20104;-70
2023/05/27 05:17:25;;;;;;;16.33;4.53;;;13.30;99.90;;;;;;5073019;28;20096;-69
2023/05/27 05:19:51;;;;;;;16.90;4.72;;;13.30;99.90;;;;;;5070714;28;20465;-69
2023/05/27 05:22:22;;;;;;;14.18;4.95;;;13.40;99.90;;;;;;5074210;28;20056;-69
2023/05/27 05:24:48;;;;;;;20.15;4.88;;;13.50;99.90;;;;;;5074292;28;20032;-70
2023/05/27 05:27:14;;;;;;;16.77;4.78;;;13.60;99.90;;;;;;5081314;28;20020;-70
2023/05/27 05:29:40;;;;;;;16.98;4.80;;;13.60;99.90;;;;;;5073483;28;20039;-74
2023/05/27 05:32:06;;;;;;;17.27;4.85;;;13.80;99.90;;;;;;5073654;28;20029;-70
2023/05/27 05:34:32;;;;;;;22.55;5.88;;;13.80;99.90;;;;;;5071860;28;20036;-70
2023/05/27 05:36:57;;;;;;;14.90;4.63;;;13.80;99.90;;;;;;5076923;28;20084;-70
2023/05/27 05:39:23;;;;;;;16.13;4.38;;;13.80;99.90;;;;;;5074193;28;20139;-70
2023/05/27 05:41:49;;;;;;;15.85;5.15;;;13.90;99.90;;;;;;5074904;28;20036;-70
2023/05/27 05:44:16;;;;;;;16.92;4.70;;;13.90;99.90;;;;;;5073555;28;20035;-72
2023/05/27 05:46:42;;;;;;;13.55;4.72;;;14.00;99.90;;;;;;5061769;28;20498;-70
2023/05/27 05:49:07;;;;;;;16.30;5.07;;;14.10;99.90;;;;;;5073003;28;20108;-70
2023/05/27 05:51:33;;;;;;;16.00;4.93;;;14.20;99.90;;;;;;5073369;28;20056;-71
2023/05/27 05:53:59;;;;;;;15.55;4.93;;;14.30;99.90;;;;;;5079031;28;20062;-70
2023/05/27 05:56:27;;;;;;;18.23;5.18;;;14.30;99.90;;;;;;5068825;28;20087;-75
2023/05/27 05:58:53;;;;;;;21.77;5.03;;;14.40;99.90;;;;;;5073059;28;20024;-75
2023/05/27 06:01:19;;;;;;;21.45;5.30;;;14.50;99.90;;;;;;5073435;28;20033;-75
2023/05/27 06:03:45;;;;;;;18.35;5.30;;;14.50;99.90;;;;;;5073399;28;20112;-75
2023/05/27 06:06:11;;;;;;;15.75;4.82;;;14.60;99.90;;;;;;5065158;28;20044;-75
2023/05/27 06:08:36;;;;;;;11.48;4.57;;;14.60;99.90;;;;;;5073482;28;20124;-76
2023/05/27 06:11:02;;;;;;;21.08;5.18;;;14.70;99.90;;;;;;5071922;28;20521;-73
2023/05/27 06:13:28;;;;;;;14.57;4.30;;;14.80;99.90;;;;;;5073046;28;20032;-77
2023/05/27 06:15:55;;;;;;;14.98;4.95;;;14.90;99.90;;;;;;5064533;28;20029;-69
2023/05/27 06:18:21;;;;;;;19.10;4.82;;;15.00;99.90;;;;;;5073013;28;20029;-71
2023/05/27 06:20:46;;;;;;;15.52;4.18;;;15.10;99.90;;;;;;5057142;28;20037;-70
2023/05/27 06:23:12;;;;;;;16.15;5.15;;;15.20;99.90;;;;;;5063617;28;20020;-71
2023/05/27 06:25:38;;;;;;;16.55;5.07;;;15.40;99.90;;;;;;5069519;28;20036;-70
2023/05/27 06:28:03;;;;;;;15.55;4.38;;;15.50;99.90;;;;;;5073078;28;20017;-70
2023/05/27 06:30:29;;;;;;;16.20;5.00;;;15.50;99.90;;;;;;5071943;28;20402;-71
2023/05/27 06:32:55;;;;;;;16.55;4.90;;;15.50;99.90;;;;;;5070467;28;20043;-69
2023/05/27 06:35:21;;;;;;;17.42;4.65;;;15.70;99.90;;;;;;5070559;28;20021;-71
2023/05/27 06:37:46;;;;;;;14.98;4.72;;;15.70;99.90;;;;;;5059674;28;20489;-71
2023/05/27 06:40:12;;;;;;;12.75;4.80;;;15.80;99.90;;;;;;5071316;28;20032;-70
2023/05/27 06:42:38;;;;;;;17.15;5.25;;;15.80;99.90;;;;;;5071595;28;20043;-70
2023/05/27 06:45:04;;;;;;;12.43;4.57;;;15.80;99.90;;;;;;5070117;28;20035;-72
2023/05/27 06:47:30;;;;;;;13.70;4.82;;;15.90;99.90;;;;;;5075114;28;20032;-72
2023/05/27 06:49:55;;;;;;;15.07;4.88;;;16.00;99.90;;;;;;5061564;28;20132;-71
2023/05/27 06:52:21;;;;;;;15.80;4.97;;;16.20;99.90;;;;;;5067925;28;20025;-72
2023/05/27 06:54:47;;;;;;;17.08;4.90;;;16.30;99.90;;;;;;5052117;28;20056;-71
2023/05/27 06:57:13;;;;;;;18.45;5.60;;;16.30;99.90;;;;;;5042666;28;20107;-71
2023/05/27 06:59:40;;;;;;;20.52;5.13;;;16.20;99.90;;;;;;5071249;28;20107;-70
2023/05/27 07:02:06;;;;;;;17.52;5.00;;;16.40;99.90;;;;;;5076927;28;20060;-70
2023/05/27 07:04:32;;;;;;;16.00;5.63;;;16.50;99.90;;;;;;5065856;28;20108;-71
2023/05/27 07:06:58;;;;;;;13.32;5.13;;;16.50;99.90;;;;;;5067695;28;20638;-71
2023/05/27 07:09:23;;;;;;;14.23;4.97;;;16.50;99.90;;;;;;5071139;28;20047;-71
2023/05/27 07:11:49;;;;;;;12.48;4.40;;;16.60;99.90;;;;;;5071596;28;20035;-73
2023/05/27 07:14:15;;;;;;;21.88;5.65;;;16.60;99.90;;;;;;5068486;28;20389;-73
2023/05/27 07:16:40;;;;;;;17.48;4.80;;;16.70;99.90;;;;;;5068865;28;20039;-72
2023/05/27 07:19:06;;;;;;;16.10;5.40;;;16.80;99.90;;;;;;5069653;28;20052;-72
2023/05/27 07:21:32;;;;;;;13.57;4.68;;;16.90;99.90;;;;;;5071567;28;20024;-72
2023/05/27 07:24:02;;;;;;;15.18;5.15;;;16.90;99.70;;;;;;5068783;28;20036;-76
2023/05/27 07:26:29;;;;;;;19.00;5.32;;;17.00;99.60;;;;;;5060538;28;20032;-70
2023/05/27 07:28:58;;;;;;;12.73;4.88;;;17.10;99.70;;;;;;5065643;28;20036;-73
2023/05/27 07:31:24;;;;;;;14.15;5.20;;;17.20;99.40;;;;;;5066422;28;20028;-73
2023/05/27 07:33:49;;;;;;;15.60;5.10;;;17.30;99.40;;;;;;5072215;28;20040;-72
2023/05/27 07:36:15;;;;;;;20.90;6.18;;;17.40;99.30;;;;;;5069529;28;20040;-72
2023/05/27 07:38:40;;;;;;;12.95;3.97;;;17.60;99.70;;;;;;5064216;28;20028;-72
2023/05/27 07:41:06;;;;;;;16.15;4.72;;;17.80;98.90;;;;;;5072521;28;20112;-73
2023/05/27 07:43:32;;;;;;;16.00;5.05;;;17.90;98.40;;;;;;5058510;28;20044;-71
2023/05/27 07:45:57;;;;;;;12.82;4.93;;;18.00;98.30;;;;;;5070105;28;20093;-73
2023/05/27 07:48:23;;;;;;;11.02;4.22;;;18.00;98.10;;;;;;5069434;28;20112;-70
2023/05/27 07:50:48;;;;;;;14.82;4.82;;;18.10;97.90;;;;;;5082925;28;20045;-72
2023/05/27 07:53:14;;;;;;;17.50;5.53;;;18.10;97.80;;;;;;5068972;28;20879;-70
2023/05/27 07:55:40;;;;;;;14.00;5.43;;;18.20;97.70;;;;;;5064751;28;20024;-71
2023/05/27 07:58:05;;;;;;;15.63;4.95;;;18.40;97.50;;;;;;5052636;28;20363;-70
2023/05/27 08:00:31;;;;;;;13.05;4.50;;;18.50;97.90;;;;;;5070133;28;20024;-71
2023/05/27 08:02:56;;;;;;;14.88;5.18;;;18.60;97.40;;;;;;5070506;28;20044;-72
2023/05/27 08:05:22;;;;;;;16.42;5.40;;;18.60;97.00;;;;;;5071622;28;20090;-71
2023/05/27 08:07:48;;;;;;;14.50;5.03;;;18.80;96.80;;;;;;5080054;28;20028;-71
2023/05/27 08:10:13;;;;;;;12.88;4.78;;;18.90;96.60;;;;;;5065986;28;20053;-71
2023/05/27 08:12:39;;;;;;;16.20;4.95;;;18.90;96.00;;;;;;5071544;28;20024;-71
2023/05/27 08:15:06;;;;;;;15.88;5.38;;;19.10;96.10;;;;;;5070224;28;20021;-72
2023/05/27 08:17:31;;;;;;;11.30;4.55;;;19.20;95.70;;;;;;5071549;28;20028;-72
2023/05/27 08:19:57;;;;;;;10.88;5.20;;;19.30;95.20;;;;;;5068322;28;20028;-71
2023/05/27 08:22:22;;;;;;;14.25;5.15;;;19.30;95.10;;;;;;5076814;28;20054;-72
2023/05/27 08:24:49;;;;;;;12.70;4.68;;;19.30;95.20;;;;;;5072858;28;20465;-71
2023/05/27 08:27:16;;;;;;;16.02;5.68;;;19.30;95.10;;;;;;5068297;28;20563;-71
2023/05/27 08:29:42;;;;;;;15.05;5.70;;;19.40;95.50;;;;;;5075410;28;20052;-70
2023/05/27 08:32:07;;;;;;;13.18;5.00;;;19.50;94.50;;;;;;5079220;28;20444;-71
2023/05/27 08:34:33;;;;;;;14.18;5.53;;;19.50;94.70;;;;;;5079584;28;20036;-71
2023/05/27 08:37:00;;;;;;;16.23;5.40;;;19.50;94.40;;;;;;5070440;28;20027;-71
2023/05/27 08:39:26;;;;;;;16.50;5.60;;;19.50;94.70;;;;;;5069459;28;20032;-74
2023/05/27 08:41:53;;;;;;;9.25;4.97;;;19.60;94.30;;;;;;5075555;28;20028;-68
2023/05/27 08:44:21;;;;;;;16.73;6.47;;;19.60;94.40;;;;;;5070309;28;20048;-71
2023/05/27 08:46:50;;;;;;;16.58;4.50;;;19.80;94.10;;;;;;5071311;28;20097;-74
2023/05/27 08:49:16;;;;;;;14.10;4.90;;;19.80;94.60;;;;;;5065692;28;20081;-69
2023/05/27 08:51:42;;;;;;;14.00;5.38;;;19.90;94.10;;;;;;5058212;28;20060;-70
2023/05/27 08:54:09;;;;;;;12.90;4.85;;;20.10;99.80;;;;;;5069699;28;20059;-71
2023/05/27 08:56:35;;;;;;;15.07;5.80;;;20.20;98.80;;;;;;5077051;28;20028;-71
2023/05/27 08:59:01;;;;;;;10.50;4.80;;;20.30;95.70;;;;;;5072609;28;20039;-71
2023/05/27 09:01:27;;;;;;;14.77;5.63;;;20.40;93.10;;;;;;5063277;28;20389;-70
2023/05/27 09:03:55;;;;;;;13.70;5.32;;;20.50;92.60;;;;;;5069888;28;20037;-67
2023/05/27 09:06:21;;;;;;;10.75;4.82;;;20.50;92.70;;;;;;5073131;28;20543;-71
2023/05/27 09:08:46;;;;;;;14.30;5.07;;;20.50;92.60;;;;;;5071312;28;20031;-71
2023/05/27 09:11:30;;;;;;;16.92;5.32;;;20.60;93.70;;;;;;5064300;28;20086;-71
2023/05/27 09:13:56;;;;;;;13.65;5.53;;;20.70;92.50;;;;;;5069763;28;20186;-77
2023/05/27 09:16:22;;;;;;;14.85;5.20;;;20.80;92.50;;;;;;5071125;28;20040;-71
2023/05/27 09:18:48;;;;;;;10.85;4.90;;;20.80;92.10;;;;;;5070475;28;20056;-71
2023/05/27 09:21:14;;;;;;;13.68;4.75;;;20.80;92.20;;;;;;5066710;28;20025;-70
2023/05/27 09:23:40;;;;;;;14.55;5.07;;;20.70;92.20;;;;;;5069486;28;20036;-71
2023/05/27 09:26:10;;;;;;;17.02;5.60;;;21.00;92.30;;;;;;5069584;28;20435;-70
2023/05/27 09:28:36;;;;;;;;;;;21.20;91.60;;;;;;5070190;28;20052;-71
2023/05/27 09:31:04;;;;;;;14.65;5.38;;;21.30;91.40;;;;;;5059187;28;20333;-71
2023/05/27 09:33:48;;;;;;;18.55;5.93;;;21.50;91.00;;;;;;5086286;28;20043;-71
2023/05/27 09:36:21;;;;;;;11.85;5.85;;;21.60;90.80;;;;;;5074152;28;20025;-70
2023/05/27 09:38:48;;;;;;;17.02;5.72;;;21.70;91.00;;;;;;5061118;28;20033;-72
2023/05/27 09:41:13;;;;;;;13.13;5.22;;;21.80;91.00;;;;;;5072593;28;20040;-71
2023/05/27 09:43:39;;;;;;;10.45;5.60;;;22.00;90.50;;;;;;5073688;28;20025;-72
2023/05/27 09:46:11;;;;;;;16.10;5.55;;;22.10;90.40;;;;;;5071563;28;20473;-71
2023/05/27 09:48:37;;;;;;;12.50;4.82;;;22.10;90.10;;;;;;5068717;28;20044;-71
2023/05/27 09:51:03;;;;;;;13.20;5.65;;;22.30;89.30;;;;;;5073092;28;20049;-71
2023/05/27 09:53:30;;;;;;;15.65;5.70;;;22.40;88.60;;;;;;5073547;28;20029;-72
2023/05/27 09:55:57;;;;;;;9.02;4.93;;;22.50;88.10;;;;;;5065859;28;20032;-71
2023/05/27 09:58:24;;;;;;;13.00;5.97;;;22.50;88.40;;;;;;5066352;28;20029;-70
2023/05/27 10:00:50;;;;;;;12.10;5.22;;;22.50;88.80;;;;;;5073859;28;20052;-68
2023/05/27 10:03:23;;;;;;;15.32;5.35;;;22.70;88.10;;;;;;5072523;28;20036;-71
2023/05/27 10:05:50;;;;;;;10.48;5.07;;;22.70;87.00;;;;;;5072898;28;20086;-71
2023/05/27 10:08:17;;;;;;;13.10;5.68;;;22.80;86.30;;;;;;5068594;28;20390;-70
2023/05/27 10:10:44;;;;;;;11.95;5.53;;;23.00;86.20;;;;;;5073177;28;20031;-71
2023/05/27 10:13:10;;;;;;;12.05;5.32;;;23.10;86.20;;;;;;5071435;28;20071;-70
2023/05/27 10:15:35;;;;;;;13.95;5.70;;;23.00;85.20;;;;;;5069541;28;20057;-71
2023/05/27 10:18:06;;;;;;;18.33;5.63;;;23.10;84.80;;;;;;5068718;28;20032;-71
2023/05/27 10:20:42;;;;;;;11.93;5.30;;;23.20;85.20;;;;;;5072950;28;20116;-71
2023/05/27 10:23:27;;;;;;;13.85;5.72;;;23.30;85.20;;;;;;5072301;28;20036;-71
2023/05/27 10:26:01;;;;;;;10.45;5.53;;;23.50;85.00;;;;;;5067251;28;20021;-69
2023/05/27 10:28:36;;;;;;;12.98;5.20;;;23.70;83.00;;;;;;5075213;28;20036;-72
2023/05/27 10:31:05;;;;;;;9.98;4.88;;;23.90;83.00;;;;;;5059279;28;20064;-71
2023/05/27 10:33:34;;;;;;;12.70;5.25;;;24.00;81.10;;;;;;5077647;28;20028;-71
2023/05/27 10:36:05;;;;;;;12.95;5.43;;;24.00;81.50;;;;;;5074879;28;20035;-71
2023/05/27 10:38:31;;;;;;;10.63;5.22;;;23.90;80.00;;;;;;5072870;28;20040;-71
2023/05/27 10:41:02;;;;;;;15.73;5.35;;;23.80;80.40;;;;;;5072002;28;20021;-70
2023/05/27 10:43:29;;;;;;;14.18;6.50;;;24.00;81.50;;;;;;5072141;28;20031;-71
2023/05/27 10:46:21;;;;;;;11.80;5.60;;;24.10;79.30;;;;;;5058137;28;20033;-70
2023/05/27 10:48:47;;;;;;;14.13;5.28;;;24.20;79.10;;;;;;5055324;28;20120;-71
2023/05/27 10:51:12;;;;;;;14.55;5.18;;;24.30;79.00;;;;;;5071897;28;20064;-72
2023/05/27 10:53:38;;;;;;;10.43;5.15;;;24.40;79.20;;;;;;5077979;28;20085;-69
2023/05/27 10:56:05;;;;;;;9.38;5.35;;;24.40;78.80;;;;;;5065598;28;20128;-71
2023/05/27 10:58:33;;;;;;;10.65;5.50;;;24.60;79.70;;;;;;5068057;28;20024;-71
2023/05/27 11:01:06;;;;;;;11.43;5.38;;;24.70;77.60;;;;;;5063266;28;20090;-71
2023/05/27 11:03:32;;;;;;;9.82;4.93;;;24.80;77.10;;;;;;5068936;28;20540;-71
2023/05/27 11:06:01;;;;;;;13.50;5.88;;;25.00;76.80;;;;;;5066629;28;20109;-71
2023/05/27 11:08:27;;;;;;;8.32;4.97;;;25.20;76.60;;;;;;5069663;28;20059;-71
2023/05/27 11:10:59;;;;;;;11.45;5.35;;;25.30;76.00;;;;;;5076066;28;20458;-68
2023/05/27 11:13:35;;;;;;;21.25;5.60;;;25.40;75.30;;;;;;5071733;28;20043;-70
2023/05/27 11:16:03;;;;;;;8.90;4.78;;;25.50;73.80;;;;;;5069187;28;20032;-71
2023/05/27 11:18:37;;;;;;;11.15;5.38;;;25.50;74.40;;;;;;5071828;28;20366;-71
2023/05/27 11:21:04;;;;;;;9.57;5.00;;;25.40;74.80;;;;;;5058239;28;20054;-71
2023/05/27 11:23:42;;;;;;;9.50;5.40;;;25.40;73.80;;;;;;5071778;28;20024;-71
2023/05/27 11:26:15;;;;;;;14.52;6.57;;;25.20;73.10;;;;;;5071938;28;20024;-71
2023/05/27 11:28:56;;;;;;;11.75;5.63;;;25.10;73.80;;;;;;5074132;28;20120;-72
2023/05/27 11:31:30;;;;;;;12.30;5.95;;;25.00;72.80;;;;;;5072063;28;20051;-72
2023/05/27 11:33:57;;;;;;;11.32;5.90;;;25.20;73.10;;;;;;5076221;28;20071;-71
2023/05/27 11:36:26;;;;;;;12.80;5.82;;;25.20;72.60;;;;;;5072159;28;20017;-72
2023/05/27 11:39:00;;;;;;;11.85;5.18;;;25.20;72.40;;;;;;5071543;28;20043;-69
2023/05/27 11:41:27;;;;;;;9.13;4.38;;;25.40;72.80;;;;;;5072167;28;20025;-74
2023/05/27 11:44:06;;;;;;;14.45;5.68;;;25.60;71.50;;;;;;5081770;28;20075;-69
2023/05/27 11:46:38;;;;;;;11.02;5.60;;;25.80;71.50;;;;;;5062556;28;20028;-72
2023/05/27 11:49:05;;;;;;;12.45;5.38;;;25.90;70.90;;;;;;5057287;28;20028;-72
2023/05/27 11:51:31;;;;;;;12.10;5.40;;;26.00;70.00;;;;;;5071629;28;20052;-72
2023/05/27 11:54:00;;;;;;;9.75;5.00;;;26.00;70.80;;;;;;5069996;28;20043;-76
2023/05/27 11:56:28;;;;;;;11.57;5.13;;;26.20;71.60;;;;;;5066776;28;20397;-69
2023/05/27 11:58:55;;;;;;;11.90;5.40;;;26.40;69.70;;;;;;5070405;28;20023;-68
2023/05/27 12:01:20;;;;;;;10.57;5.47;;;26.10;69.00;;;;;;5079737;28;20047;-69
2023/05/27 12:03:46;;;;;;;13.80;6.70;;;25.70;69.10;;;;;;5071253;28;20470;-69
2023/05/27 12:06:11;;;;;;;9.60;5.65;;;25.20;68.70;;;;;;5067039;28;20044;-69
2023/05/27 12:08:38;;;;;;;11.85;5.70;;;25.20;69.70;;;;;;5070226;28;20497;-69
2023/05/27 12:11:04;;;;;;;8.63;5.15;;;25.30;69.30;;;;;;5067432;28;20107;-77
2023/05/27 12:13:31;;;;;;;10.57;5.68;;;25.40;69.30;;;;;;5076047;28;20034;-69
2023/05/27 12:15:57;;;;;;;12.02;5.20;;;25.50;68.40;;;;;;5075675;28;20036;-69
2023/05/27 12:18:23;;;;;;;13.48;5.85;;;25.60;70.00;;;;;;5070410;28;20056;-70
2023/05/27 12:20:49;;;;;;;9.70;5.45;;;25.70;69.40;;;;;;5058574;28;20053;-70
2023/05/27 12:23:14;;;;;;;10.85;5.32;;;26.00;69.40;;;;;;5069058;28;20039;-70
2023/05/27 12:25:40;;;;;;;10.23;5.78;;;26.30;69.30;;;;;;5070857;28;20133;-70
2023/05/27 12:28:08;;;;;;;13.00;6.35;;;26.40;68.80;;;;;;5071112;28;20029;-70
2023/05/27 12:30:34;;;;;;;11.50;5.88;;;26.30;67.90;;;;;;5071226;28;20517;-69
2023/05/27 12:33:00;;;;;;;9.55;6.07;;;26.30;67.70;;;;;;5072474;28;20032;-69
2023/05/27 12:35:26;;;;;;;9.48;5.65;;;26.40;67.10;;;;;;5070063;28;20041;-70
2023/05/27 12:37:52;;;;;;;12.68;6.18;;;26.50;67.80;;;;;;5068979;28;20050;-67
2023/05/27 12:40:18;;;;;;;13.57;5.97;;;26.50;66.80;;;;;;5070738;28;20021;-70
2023/05/27 12:42:44;;;;;;;10.65;6.03;;;26.60;68.10;;;;;;5071304;28;20028;-69
2023/05/27 12:45:10;;;;;;;11.68;5.95;;;26.50;67.20;;;;;;5067012;28;20748;-70
2023/05/27 12:47:36;;;;;;;12.65;6.10;;;26.50;67.00;;;;;;5070724;28;20074;-69
2023/05/27 12:50:01;;;;;;;9.70;4.90;;;26.60;67.10;;;;;;5078969;28;20048;-69